createdAt,value
2019-01-03T00:01:42.487Z,2.00
2019-01-03T00:04:33.511Z,2.45
2019-01-03T00:07:30.806Z,2.25
2019-01-03T00:10:18.724Z,2.30
2019-01-03T00:13:22.141Z,2.47
2019-01-03T00:16:09.179Z,2.70
2019-01-03T00:19:00.187Z,2.05
2019-01-03T00:21:49.839Z,2.42
2019-01-03T00:24:37.858Z,2.87
2019-01-03T00:27:24.813Z,2.65
2019-01-03T00:30:22.080Z,2.37
2019-01-03T00:33:15.160Z,3.15
2019-01-03T00:36:09.226Z,2.80
2019-01-03T00:38:55.789Z,2.80
2019-01-03T00:41:38.816Z,2.80
2019-01-03T00:44:29.832Z,3.12
2019-01-03T00:47:12.328Z,3.10
2019-01-03T00:49:59.099Z,2.85
2019-01-03T00:52:55.748Z,2.92
2019-01-03T00:55:43.814Z,2.92
2019-01-03T00:58:30.454Z,3.75
2019-01-03T01:01:14.567Z,3.15
2019-01-03T01:04:02.575Z,3.65
2019-01-03T01:06:49.410Z,3.15
2019-01-03T01:09:52.841Z,3.55
2019-01-03T01:12:49.998Z,3.67
2019-01-03T01:15:34.348Z,3.70
2019-01-03T01:18:40.613Z,3.50
2019-01-03T01:21:28.636Z,3.95
2019-01-03T01:24:15.678Z,2.92
2019-01-03T01:27:08.417Z,2.90
2019-01-03T01:29:56.428Z,3.33
2019-01-03T01:32:50.572Z,2.83
2019-01-03T01:35:38.819Z,4.85
2019-01-03T01:38:25.600Z,2.98
2019-01-03T01:41:18.443Z,3.20
2019-01-03T01:44:05.143Z,2.80
2019-01-03T01:46:52.247Z,2.37
2019-01-03T01:49:33.154Z,2.25
2019-01-03T01:52:20.242Z,2.77
2019-01-03T01:55:15.355Z,3.35
2019-01-03T01:58:12.750Z,3.05
2019-01-03T02:01:09.682Z,3.15
2019-01-03T02:07:26.825Z,3.08
2019-01-03T02:10:07.362Z,2.70
2019-01-03T02:12:56.969Z,2.60
2019-01-03T02:15:44.067Z,2.60
2019-01-03T02:18:37.912Z,3.10
2019-01-03T02:21:29.132Z,2.08
2019-01-03T02:24:09.541Z,2.65
2019-01-03T02:26:57.669Z,3.10
2019-01-03T02:29:44.553Z,3.40
2019-01-03T02:32:31.442Z,2.60
2019-01-03T02:35:25.638Z,2.45
2019-01-03T02:38:14.692Z,3.15
2019-01-03T02:40:59.704Z,2.55
2019-01-03T02:43:50.449Z,3.30
2019-01-03T02:46:50.491Z,2.10
2019-01-03T02:49:39.429Z,2.98
2019-01-03T02:52:26.260Z,2.40
2019-01-03T02:55:12.430Z,2.80
2019-01-03T02:58:18.945Z,3.40
2019-01-03T03:01:04.997Z,1.90
2019-01-03T03:03:47.481Z,2.42
2019-01-03T03:06:24.080Z,2.77
2019-01-03T03:09:18.268Z,2.02
2019-01-03T03:12:17.894Z,2.50
2019-01-03T03:15:21.180Z,2.42
2019-01-03T03:18:09.059Z,2.30
2019-01-03T03:20:57.037Z,2.45
2019-01-03T03:23:39.778Z,2.20
2019-01-03T03:26:37.021Z,2.70
2019-01-03T03:29:26.176Z,2.40
2019-01-03T03:32:20.370Z,2.25
2019-01-03T03:35:02.281Z,2.22
2019-01-03T03:37:49.092Z,2.15
2019-01-03T03:40:36.699Z,2.27
2019-01-03T03:43:40.449Z,2.50
2019-01-03T03:46:27.558Z,2.70
2019-01-03T03:49:08.206Z,2.50
2019-01-03T03:52:11.105Z,2.47
2019-01-03T03:54:59.053Z,2.25
2019-01-03T03:57:47.261Z,2.52
2019-01-03T04:00:41.174Z,2.87
2019-01-03T04:03:27.841Z,2.22
2019-01-03T04:06:16.813Z,2.35
2019-01-03T04:09:11.421Z,2.98
2019-01-03T04:12:17.753Z,2.95
2019-01-03T04:15:11.658Z,2.00
2019-01-03T04:17:50.621Z,2.33
2019-01-03T04:20:41.589Z,2.02
2019-01-03T04:23:38.711Z,2.30
2019-01-03T04:26:25.289Z,1.75
2019-01-03T04:29:10.881Z,3.27
2019-01-03T04:32:02.125Z,2.20
2019-01-03T04:34:55.699Z,2.55
2019-01-03T04:37:55.877Z,2.05
2019-01-03T04:40:49.549Z,2.12
2019-01-03T04:43:31.559Z,2.15
2019-01-03T04:46:25.541Z,1.87
2019-01-03T04:49:06.556Z,2.30
2019-01-03T04:52:03.335Z,2.35
2019-01-03T04:54:50.429Z,1.87
2019-01-03T04:57:44.325Z,2.72
2019-01-03T05:00:31.231Z,1.75
2019-01-03T05:03:18.810Z,1.87
2019-01-03T05:05:58.834Z,2.58
2019-01-03T05:08:45.788Z,2.45
2019-01-03T05:11:47.739Z,2.15
2019-01-03T05:14:34.474Z,1.82
2019-01-03T05:17:25.610Z,2.35
2019-01-03T05:20:12.477Z,1.98
2019-01-03T05:22:59.550Z,2.05
2019-01-03T05:25:41.433Z,2.50
2019-01-03T05:28:38.509Z,2.60
2019-01-03T05:31:25.645Z,2.17
2019-01-03T05:34:22.998Z,2.42
2019-01-03T05:37:10.958Z,2.27
2019-01-03T05:39:57.699Z,2.80
2019-01-03T05:42:39.957Z,2.40
2019-01-03T05:45:35.904Z,2.30
2019-01-03T05:48:35.921Z,2.50
2019-01-03T05:51:33.513Z,2.62
2019-01-03T05:54:20.491Z,1.72
2019-01-03T05:57:07.512Z,2.35
2019-01-03T05:59:54.341Z,2.80
2019-01-03T06:02:41.238Z,2.67
2019-01-03T06:05:23.645Z,2.67
2019-01-03T06:08:10.257Z,2.52
2019-01-03T06:10:53.291Z,2.10
2019-01-03T06:13:35.671Z,2.22
2019-01-03T06:16:22.731Z,2.20
2019-01-03T06:19:21.801Z,2.50
2019-01-03T06:22:11.577Z,1.95
2019-01-03T06:25:05.567Z,2.15
2019-01-03T06:27:52.280Z,2.00
2019-01-03T06:30:39.094Z,3.05
2019-01-03T06:33:18.328Z,2.67
2019-01-03T06:36:22.317Z,2.70
2019-01-03T06:39:22.729Z,2.77
2019-01-03T06:42:10.019Z,2.40
2019-01-03T06:44:56.948Z,3.30
2019-01-03T06:47:54.116Z,2.47
2019-01-03T06:50:38.042Z,2.98
2019-01-03T06:53:25.998Z,2.45
2019-01-03T06:56:32.225Z,2.62
2019-01-03T06:59:19.038Z,2.40
2019-01-03T07:02:13.513Z,2.15
2019-01-03T07:05:00.283Z,2.75
2019-01-03T07:08:02.814Z,2.20
2019-01-03T07:10:43.294Z,2.55
2019-01-03T07:13:43.724Z,2.55
2019-01-03T07:16:32.754Z,2.00
2019-01-03T07:19:29.833Z,2.50
2019-01-03T07:22:16.655Z,3.02
2019-01-03T07:25:05.158Z,2.40
2019-01-03T07:28:06.562Z,2.40
2019-01-03T07:31:09.547Z,2.50
2019-01-03T07:33:57.738Z,5.15
2019-01-03T07:36:44.385Z,4.45
2019-01-03T07:39:41.218Z,2.60
2019-01-03T07:42:32.331Z,3.80
2019-01-03T07:45:29.266Z,2.50
2019-01-03T07:51:55.252Z,3.05
2019-01-03T07:54:58.446Z,3.65
2019-01-03T07:57:52.568Z,2.98
2019-01-03T08:00:40.614Z,2.52
2019-01-03T08:03:27.198Z,2.80
2019-01-03T08:06:11.973Z,2.37
2019-01-03T08:08:59.008Z,2.30
2019-01-03T08:11:46.989Z,2.50
2019-01-03T08:14:37.557Z,2.72
2019-01-03T08:17:28.641Z,2.50
2019-01-03T08:20:10.377Z,2.50
2019-01-03T08:23:01.902Z,2.60
2019-01-03T08:25:44.516Z,2.62
2019-01-03T08:28:42.101Z,2.45
2019-01-03T08:31:28.713Z,2.80
2019-01-03T08:34:19.725Z,2.70
2019-01-03T08:37:23.371Z,2.87
2019-01-03T08:40:20.525Z,2.72
2019-01-03T08:43:27.982Z,2.90
2019-01-03T08:46:16.238Z,1.65
2019-01-03T08:49:03.111Z,2.65
2019-01-03T08:51:52.945Z,2.65
2019-01-03T08:54:30.328Z,2.25
2019-01-03T08:57:25.437Z,2.95
2019-01-03T09:00:26.967Z,2.62
2019-01-03T09:03:22.405Z,3.27
2019-01-03T09:06:25.637Z,1.90
2019-01-03T09:09:16.616Z,2.15
2019-01-03T09:11:54.837Z,2.20
2019-01-03T09:14:41.581Z,2.08
2019-01-03T09:17:28.324Z,2.17
2019-01-03T09:20:29.659Z,2.60
2019-01-03T09:23:20.394Z,2.72
2019-01-03T09:26:15.066Z,2.50
2019-01-03T09:29:03.554Z,2.80
2019-01-03T09:32:09.680Z,2.72
2019-01-03T09:35:06.689Z,2.33
2019-01-03T09:37:57.852Z,2.05
2019-01-03T09:40:44.450Z,2.60
2019-01-03T09:43:32.018Z,2.52
2019-01-03T09:46:01.285Z,1.90
2019-01-03T09:48:30.185Z,2.08
2019-01-03T09:50:59.508Z,2.00
2019-01-03T09:53:28.637Z,1.80
2019-01-03T09:55:57.571Z,2.35
2019-01-03T09:58:26.507Z,2.45
2019-01-03T10:00:55.521Z,2.47
2019-01-03T10:03:28.501Z,2.10
2019-01-03T10:05:57.366Z,2.62
2019-01-03T10:08:26.576Z,2.20
2019-01-03T10:10:55.706Z,1.82
2019-01-03T10:13:25.693Z,2.50
2019-01-03T10:15:54.881Z,2.77
2019-01-03T10:18:23.769Z,3.80
2019-01-03T10:20:52.773Z,2.60
2019-01-03T10:23:21.786Z,2.67
2019-01-03T10:25:50.921Z,2.22
2019-01-03T10:28:19.869Z,2.30
2019-01-03T10:30:49.115Z,2.65
2019-01-03T10:33:18.165Z,3.37
2019-01-03T10:35:47.145Z,2.42
2019-01-03T10:38:20.928Z,2.05
2019-01-03T10:40:46.814Z,2.77
2019-01-03T10:43:15.722Z,2.80
2019-01-03T10:45:44.608Z,2.65
2019-01-03T10:48:13.818Z,2.00
2019-01-03T10:50:42.801Z,2.30
2019-01-03T10:53:12.028Z,2.92
2019-01-03T10:55:41.122Z,2.42
2019-01-03T10:58:10.083Z,2.50
2019-01-03T11:00:39.077Z,2.15
2019-01-03T11:03:08.086Z,2.30
2019-01-03T11:05:36.937Z,2.42
2019-01-03T11:08:05.941Z,2.30
2019-01-03T11:10:35.005Z,2.33
2019-01-03T11:13:04.957Z,2.50
2019-01-03T11:15:33.823Z,2.42
2019-01-03T11:18:02.661Z,2.70
2019-01-03T11:20:31.532Z,2.50
2019-01-03T11:23:00.422Z,2.12
2019-01-03T11:25:29.353Z,2.42
2019-01-03T11:27:58.493Z,2.50
2019-01-03T11:30:27.444Z,2.50
2019-01-03T11:32:58.434Z,2.00
2019-01-03T11:35:27.265Z,2.40
2019-01-03T11:37:56.197Z,2.58
2019-01-03T11:40:25.197Z,2.92
2019-01-03T11:42:54.263Z,2.98
2019-01-03T11:45:23.207Z,3.20
2019-01-03T11:47:52.043Z,3.10
2019-01-03T11:50:20.953Z,3.20
2019-01-03T11:52:49.812Z,3.10
2019-01-03T11:55:18.757Z,2.35
2019-01-03T11:57:47.806Z,2.77
2019-01-03T12:00:16.941Z,3.10
2019-01-03T12:02:45.793Z,3.75
2019-01-03T12:05:15.361Z,2.72
2019-01-03T12:07:44.249Z,2.80
2019-01-03T12:10:14.566Z,3.22
2019-01-03T12:12:43.406Z,2.95
2019-01-03T12:15:12.432Z,3.50
2019-01-03T12:17:41.616Z,3.10
2019-01-03T12:20:10.616Z,3.90
2019-01-03T12:22:39.532Z,3.65
2019-01-03T12:25:08.725Z,3.10
2019-01-03T12:27:38.010Z,3.40
2019-01-03T12:30:09.635Z,3.20
2019-01-03T12:32:38.497Z,3.70
2019-01-03T12:35:08.061Z,3.45
2019-01-03T12:37:37.008Z,4.08
2019-01-03T12:40:06.740Z,3.47
2019-01-03T12:42:36.789Z,3.65
2019-01-03T12:45:06.480Z,3.65
2019-01-03T12:47:35.496Z,4.03
2019-01-03T12:50:05.167Z,3.85
2019-01-03T12:52:34.014Z,3.58
2019-01-03T12:55:02.884Z,3.75
2019-01-03T12:57:31.737Z,4.55
2019-01-03T13:00:00.717Z,3.55
2019-01-03T13:02:32.147Z,4.20
2019-01-03T13:05:01.597Z,4.62
2019-01-03T13:07:30.461Z,3.47
2019-01-03T13:09:59.450Z,3.58
2019-01-03T13:12:28.928Z,3.50
2019-01-03T13:14:57.872Z,4.42
2019-01-03T13:17:32.943Z,3.90
2019-01-03T13:20:01.764Z,4.10
2019-01-03T13:22:30.706Z,3.90
2019-01-03T13:24:59.667Z,4.37
2019-01-03T13:27:28.971Z,4.40
2019-01-03T13:29:58.005Z,4.37
2019-01-03T13:32:27.290Z,3.90
2019-01-03T13:34:56.191Z,4.20
2019-01-03T13:37:25.176Z,5.15
2019-01-03T13:39:54.078Z,4.05
2019-01-03T13:42:22.945Z,4.00
2019-01-03T13:44:51.777Z,4.20
2019-01-03T13:47:20.709Z,3.70
2019-01-03T13:49:49.627Z,4.42
2019-01-03T13:52:19.549Z,4.95
2019-01-03T13:54:48.565Z,5.30
2019-01-03T13:57:17.463Z,4.40
2019-01-03T13:59:46.390Z,4.60
2019-01-03T14:02:15.283Z,5.03
2019-01-03T14:04:44.201Z,4.78
2019-01-03T14:07:13.042Z,4.35
2019-01-03T14:09:41.960Z,4.78
2019-01-03T14:12:10.931Z,4.87
2019-01-03T14:14:39.853Z,5.15
2019-01-03T14:17:08.831Z,4.90
2019-01-03T14:19:37.706Z,4.00
2019-01-03T14:22:06.816Z,5.05
2019-01-03T14:24:35.809Z,5.42
2019-01-03T14:27:04.876Z,4.40
2019-01-03T14:29:33.728Z,5.83
2019-01-03T14:32:04.573Z,5.97
2019-01-03T14:34:34.541Z,5.15
2019-01-03T14:37:03.429Z,5.47
2019-01-03T14:39:32.637Z,5.80
2019-01-03T14:42:01.454Z,6.33
2019-01-03T14:44:30.288Z,6.35
2019-01-03T14:46:59.201Z,6.03
2019-01-03T14:49:28.485Z,6.83
2019-01-03T14:51:57.635Z,6.80
2019-01-03T14:54:26.509Z,7.40
2019-01-03T14:56:55.378Z,7.30
2019-01-03T14:59:24.465Z,6.90
2019-01-03T15:01:53.677Z,7.65
2019-01-03T15:04:22.520Z,7.42
2019-01-03T15:06:51.398Z,6.85
2019-01-03T15:09:20.298Z,7.80
2019-01-03T15:11:49.129Z,7.90
2019-01-03T15:14:18.216Z,7.67
2019-01-03T15:16:47.058Z,6.87
2019-01-03T15:19:15.994Z,6.42
2019-01-03T15:21:44.817Z,7.17
2019-01-03T15:24:14.004Z,7.30
2019-01-03T15:26:42.805Z,7.45
2019-01-03T15:29:11.717Z,7.05
2019-01-03T15:31:40.636Z,6.75
2019-01-03T15:34:09.701Z,7.75
2019-01-03T15:36:38.652Z,7.12
2019-01-03T15:39:07.977Z,7.62
2019-01-03T15:41:37.186Z,7.80
2019-01-03T15:44:06.100Z,8.20
2019-01-03T15:46:35.201Z,7.42
2019-01-03T15:49:04.093Z,8.38
2019-01-03T15:51:32.916Z,8.95
2019-01-03T15:54:01.712Z,8.13
2019-01-03T15:56:30.561Z,8.35
2019-01-03T15:58:59.395Z,8.95
2019-01-03T16:01:28.668Z,7.20
2019-01-03T16:03:57.550Z,8.05
2019-01-03T16:06:26.786Z,7.17
2019-01-03T16:08:55.585Z,7.17
2019-01-03T16:11:24.509Z,7.72
2019-01-03T16:13:53.588Z,7.22
2019-01-03T16:16:22.439Z,7.00
2019-01-03T16:18:51.275Z,8.25
2019-01-03T16:21:20.535Z,7.87
2019-01-03T16:23:49.679Z,7.35
2019-01-03T16:26:18.585Z,8.50
2019-01-03T16:28:47.583Z,8.28
2019-01-03T16:31:16.602Z,8.53
2019-01-03T16:33:47.175Z,7.95
2019-01-03T16:36:16.114Z,8.68
2019-01-03T16:38:45.310Z,7.65
2019-01-03T16:41:17.137Z,7.95
2019-01-03T16:43:46.017Z,8.43
2019-01-03T16:46:15.109Z,8.23
2019-01-03T16:48:44.077Z,8.70
2019-01-03T16:51:12.995Z,9.10
2019-01-03T16:53:42.069Z,9.55
2019-01-03T16:56:10.979Z,9.40
2019-01-03T16:58:40.057Z,8.70
2019-01-03T17:01:08.947Z,8.28
2019-01-03T17:03:38.195Z,9.15
2019-01-03T17:06:07.101Z,9.05
2019-01-03T17:08:36.055Z,9.93
2019-01-03T17:11:05.605Z,8.83
2019-01-03T17:13:34.702Z,9.98
2019-01-03T17:16:03.618Z,8.73
2019-01-03T17:18:32.899Z,8.30
2019-01-03T17:21:01.749Z,9.05
2019-01-03T17:23:30.915Z,9.60
2019-01-03T17:26:00.035Z,10.00
2019-01-03T17:28:28.908Z,10.48
2019-01-03T17:30:57.751Z,8.53
2019-01-03T17:33:26.784Z,9.78
2019-01-03T17:35:55.931Z,10.80
2019-01-03T17:38:24.857Z,10.80
2019-01-03T17:40:53.684Z,12.13
2019-01-03T17:43:22.929Z,10.15
2019-01-03T17:45:52.201Z,10.08
2019-01-03T17:48:21.069Z,10.75
2019-01-03T17:50:49.997Z,8.60
2019-01-03T17:53:19.238Z,10.30
2019-01-03T17:55:48.237Z,9.70
2019-01-03T17:58:17.144Z,9.93
2019-01-03T18:00:47.293Z,11.15
2019-01-03T18:03:16.254Z,10.45
2019-01-03T18:05:45.254Z,10.05
2019-01-03T18:08:14.130Z,10.20
2019-01-03T18:10:43.962Z,9.40
2019-01-03T18:13:16.094Z,11.28
2019-01-03T18:15:44.998Z,9.58
2019-01-03T18:18:13.919Z,9.83
2019-01-03T18:20:42.884Z,10.28
2019-01-03T18:23:11.907Z,11.00
2019-01-03T18:25:40.976Z,9.88
2019-01-03T18:28:10.151Z,12.65
2019-01-03T18:30:39.169Z,11.45
2019-01-03T18:33:09.574Z,10.72
2019-01-03T18:35:38.496Z,11.65
2019-01-03T18:38:07.555Z,11.30
2019-01-03T18:40:37.525Z,12.03
2019-01-03T18:43:08.630Z,12.35
2019-01-03T18:45:37.905Z,12.98
2019-01-03T18:48:06.959Z,12.40
2019-01-03T18:50:35.893Z,13.08
2019-01-03T18:53:04.894Z,12.70
2019-01-03T18:55:33.887Z,12.75
2019-01-03T18:58:02.986Z,14.53
2019-01-03T19:00:31.910Z,13.72
2019-01-03T19:03:01.389Z,13.32
2019-01-03T19:05:30.290Z,14.00
2019-01-03T19:07:59.255Z,16.82
2019-01-03T19:10:28.483Z,14.98
2019-01-03T19:12:57.846Z,15.40
2019-01-03T19:15:26.942Z,14.75
2019-01-03T19:17:55.791Z,15.13
2019-01-03T19:20:25.092Z,15.90
2019-01-03T19:22:54.151Z,16.12
2019-01-03T19:25:23.155Z,15.58
2019-01-03T19:27:52.114Z,15.68
2019-01-03T19:30:21.156Z,16.90
2019-01-03T19:32:50.077Z,16.30
2019-01-03T19:35:19.035Z,15.35
2019-01-03T19:37:48.096Z,17.00
2019-01-03T19:40:17.189Z,17.25
2019-01-03T19:42:47.626Z,19.25
2019-01-03T19:45:16.816Z,15.63
2019-01-03T19:47:45.861Z,16.27
2019-01-03T19:50:18.383Z,14.23
2019-01-03T19:52:47.429Z,14.55
2019-01-03T19:55:16.486Z,17.95
2019-01-03T19:57:45.459Z,15.35
2019-01-03T20:00:15.814Z,15.95
2019-01-03T20:02:44.859Z,16.15
2019-01-03T20:05:13.993Z,16.23
2019-01-03T20:07:43.205Z,16.52
2019-01-03T20:10:12.750Z,15.75
2019-01-03T20:12:41.692Z,16.32
2019-01-03T20:15:11.785Z,17.40
2019-01-03T20:17:40.792Z,14.40
2019-01-03T20:20:10.029Z,15.28
2019-01-03T20:22:39.084Z,13.93
2019-01-03T20:25:08.914Z,13.60
2019-01-03T20:27:37.962Z,14.75
2019-01-03T20:30:07.352Z,14.75
2019-01-03T20:32:36.386Z,13.58
2019-01-03T20:35:05.716Z,13.43
2019-01-03T20:37:34.657Z,15.55
2019-01-03T20:40:06.453Z,15.10
2019-01-03T20:42:41.163Z,14.93
2019-01-03T20:45:11.769Z,15.15
2019-01-03T20:47:40.816Z,14.60
2019-01-03T20:50:10.259Z,14.55
2019-01-03T20:52:39.199Z,13.65
2019-01-03T20:55:08.455Z,12.60
2019-01-03T20:57:37.402Z,14.15
2019-01-03T21:00:08.346Z,13.40
2019-01-03T21:02:37.594Z,12.30
2019-01-03T21:05:08.751Z,11.70
2019-01-03T21:07:37.854Z,12.33
2019-01-03T21:10:08.815Z,12.68
2019-01-03T21:12:37.759Z,15.18
2019-01-03T21:15:08.791Z,12.82
2019-01-03T21:17:37.797Z,14.30
2019-01-03T21:20:08.632Z,13.25
2019-01-03T21:22:37.692Z,13.15
2019-01-03T21:25:08.130Z,14.00
2019-01-03T21:27:37.107Z,16.82
2019-01-03T21:30:10.489Z,15.40
2019-01-03T21:32:39.499Z,13.78
2019-01-03T21:35:08.411Z,14.20
2019-01-03T21:37:37.472Z,14.65
2019-01-03T21:40:07.969Z,15.60
2019-01-03T21:42:37.012Z,17.45
2019-01-03T21:45:06.100Z,18.25
2019-01-03T21:47:35.098Z,20.43
2019-01-03T21:50:04.818Z,15.70
2019-01-03T21:52:35.955Z,20.85
2019-01-03T21:55:05.671Z,15.60
2019-01-03T21:57:34.691Z,13.98
2019-01-03T22:00:03.963Z,15.58
2019-01-03T22:02:32.911Z,17.05
2019-01-03T22:05:01.852Z,15.75
2019-01-03T22:07:30.774Z,14.30
2019-01-03T22:09:59.786Z,13.10
2019-01-03T22:12:30.766Z,13.72
2019-01-03T22:14:59.774Z,15.43
2019-01-03T22:17:28.648Z,13.10
2019-01-03T22:19:57.624Z,13.70
2019-01-03T22:22:27.019Z,12.60
2019-01-03T22:24:56.010Z,13.88
2019-01-03T22:27:24.863Z,15.60
2019-01-03T22:29:54.423Z,13.32
2019-01-03T22:32:23.569Z,12.73
2019-01-03T22:34:52.427Z,14.03
2019-01-03T22:37:21.343Z,12.05
2019-01-03T22:39:50.294Z,14.58
2019-01-03T22:42:20.371Z,14.43
2019-01-03T22:44:49.314Z,13.72
2019-01-03T22:47:23.189Z,14.75
2019-01-03T22:49:57.938Z,13.88
2019-01-03T22:52:26.974Z,14.50
2019-01-03T22:54:57.306Z,14.55
2019-01-03T22:57:27.717Z,13.65
2019-01-03T22:59:59.247Z,15.38
2019-01-03T23:02:32.835Z,15.25
2019-01-03T23:05:02.162Z,15.00
2019-01-03T23:07:31.308Z,16.20
2019-01-03T23:10:02.386Z,13.80
2019-01-03T23:12:34.469Z,16.07
2019-01-03T23:15:05.538Z,13.38
2019-01-03T23:17:34.487Z,15.13
2019-01-03T23:20:13.651Z,13.98
2019-01-03T23:22:42.700Z,14.13
2019-01-03T23:25:11.766Z,15.08
2019-01-03T23:27:40.725Z,12.98
2019-01-03T23:30:09.723Z,13.35
2019-01-03T23:32:38.622Z,15.45
2019-01-03T23:35:07.644Z,14.25
2019-01-03T23:37:36.482Z,13.85
2019-01-03T23:40:05.711Z,15.45
2019-01-03T23:42:34.709Z,14.70
2019-01-03T23:45:15.204Z,14.35
2019-01-03T23:47:44.485Z,15.50
2019-01-03T23:50:15.830Z,13.22
2019-01-03T23:52:44.806Z,14.73
2019-01-03T23:55:13.817Z,15.38
2019-01-03T23:57:42.883Z,15.32
